Time;durP1;ratioP1;P1;durP2;ratioP2;P2;SDS_P1;SDS_P2;PMS_P1;PMS_P2;Temp;Humidity;BMP_temperature;BMP_pressure;BME280_temperature;BME280_humidity;BME280_pressure;Samples;Min_cycle;Max_cycle;Signal;HPM_P1;HPM_P2
2024/01/05 00:00:58;;;;;;;4.22;2.22;;;7.50;99.90;;;;;;5034101;28;20045;-60
2024/01/05 00:03:24;;;;;;;3.60;2.35;;;7.50;99.90;;;;;;5034183;28;20064;-60
2024/01/05 00:05:51;;;;;;;3.47;2.42;;;7.50;99.90;;;;;;5033916;28;20065;-68
2024/01/05 00:08:18;;;;;;;3.42;2.17;;;7.50;99.90;;;;;;5033881;28;20045;-68
2024/01/05 00:10:45;;;;;;;4.95;2.60;;;7.40;99.90;;;;;;5033928;28;20091;-69
2024/01/05 00:13:12;;;;;;;4.97;2.10;;;7.20;99.90;;;;;;5033531;28;20037;-60
2024/01/05 00:15:39;;;;;;;5.75;2.30;;;7.10;99.90;;;;;;5033397;28;20042;-60
2024/01/05 00:18:06;;;;;;;4.10;2.17;;;7.10;99.90;;;;;;5033797;28;20057;-60
2024/01/05 00:20:33;;;;;;;4.60;1.75;;;7.00;99.90;;;;;;5033926;28;20095;-60
2024/01/05 00:23:00;;;;;;;6.03;1.85;;;7.00;99.90;;;;;;5033522;28;20103;-60
2024/01/05 00:25:27;;;;;;;2.50;1.65;;;6.90;99.90;;;;;;5032339;28;20536;-60
2024/01/05 00:27:53;;;;;;;3.45;1.48;;;6.90;99.90;;;;;;5033495;28;20048;-60
2024/01/05 00:30:20;;;;;;;3.38;1.70;;;6.90;99.90;;;;;;5033287;28;20500;-60
2024/01/05 00:32:47;;;;;;;3.55;1.70;;;6.80;99.90;;;;;;5033385;28;20128;-59
2024/01/05 00:35:14;;;;;;;3.35;1.88;;;6.80;99.90;;;;;;5031838;28;20052;-60
2024/01/05 00:37:41;;;;;;;3.42;1.85;;;6.80;99.90;;;;;;5033470;28;20487;-60
2024/01/05 00:40:08;;;;;;;4.10;1.70;;;6.70;99.90;;;;;;5032114;28;20049;-60
2024/01/05 00:42:35;;;;;;;3.20;1.45;;;6.70;99.90;;;;;;5031992;28;20125;-60
2024/01/05 00:45:01;;;;;;;3.35;1.50;;;6.70;99.90;;;;;;5032360;28;20060;-60
2024/01/05 00:47:28;;;;;;;2.92;1.33;;;6.60;99.90;;;;;;5033237;28;20387;-60
2024/01/05 00:49:55;;;;;;;3.35;1.20;;;6.60;99.90;;;;;;5033425;28;20043;-61
2024/01/05 00:52:22;;;;;;;2.08;1.08;;;6.50;99.90;;;;;;5033455;28;20045;-61
2024/01/05 00:54:49;;;;;;;2.55;1.10;;;6.50;99.90;;;;;;5032946;28;20541;-60
2024/01/05 00:57:15;;;;;;;4.47;1.02;;;6.50;99.90;;;;;;5033127;28;20076;-61
2024/01/05 00:59:42;;;;;;;2.17;0.90;;;6.50;99.90;;;;;;5033280;28;20124;-61
2024/01/05 01:02:09;;;;;;;2.97;1.00;;;6.40;99.90;;;;;;5035713;28;20045;-61
2024/01/05 01:04:36;;;;;;;2.78;0.98;;;6.40;99.90;;;;;;5036687;28;20034;-60
2024/01/05 01:07:03;;;;;;;3.17;0.73;;;6.30;99.90;;;;;;5035577;28;20038;-61
2024/01/05 01:09:30;;;;;;;2.20;0.60;;;6.20;99.90;;;;;;5036774;28;20042;-61
2024/01/05 01:11:56;;;;;;;2.70;0.80;;;6.20;99.90;;;;;;5036993;28;20041;-60
2024/01/05 01:14:23;;;;;;;2.03;0.65;;;6.10;99.90;;;;;;5035688;28;20053;-60
2024/01/05 01:16:51;;;;;;;2.05;0.57;;;5.90;99.90;;;;;;5036380;28;20441;-61
2024/01/05 01:19:17;;;;;;;1.63;0.50;;;6.00;99.90;;;;;;5036625;28;20068;-61
2024/01/05 01:21:44;;;;;;;2.63;1.17;;;5.90;99.90;;;;;;5036896;28;20128;-61
2024/01/05 01:24:11;;;;;;;1.55;0.68;;;5.80;99.90;;;;;;5035435;28;20396;-61
2024/01/05 01:26:38;;;;;;;2.20;0.98;;;5.70;99.90;;;;;;5037026;28;20075;-60
2024/01/05 01:29:06;;;;;;;3.60;0.65;;;5.70;99.90;;;;;;5035135;28;20038;-60
2024/01/05 01:31:33;;;;;;;2.65;0.75;;;5.60;99.90;;;;;;5036319;28;20040;-61
2024/01/05 01:33:59;;;;;;;2.25;0.60;;;5.60;99.90;;;;;;5035098;28;20130;-61
2024/01/05 01:36:26;;;;;;;2.65;0.60;;;5.60;99.90;;;;;;5036915;28;20434;-60
2024/01/05 01:38:53;;;;;;;2.63;0.80;;;5.50;99.90;;;;;;5035192;28;20049;-61
2024/01/05 01:41:20;;;;;;;1.85;0.60;;;5.60;99.90;;;;;;5036619;28;20100;-60
2024/01/05 01:43:50;;;;;;;3.05;0.95;;;5.60;99.90;;;;;;5035935;28;20049;-58
2024/01/05 01:46:19;;;;;;;1.95;0.70;;;5.50;99.90;;;;;;5036056;28;20116;-60
2024/01/05 01:48:46;;;;;;;4.10;0.77;;;5.50;99.90;;;;;;5036624;28;20046;-60
2024/01/05 01:51:13;;;;;;;2.60;0.63;;;5.50;99.90;;;;;;5036325;28;20087;-60
2024/01/05 01:53:40;;;;;;;3.15;0.75;;;5.40;99.90;;;;;;5036399;28;20076;-61
2024/01/05 01:56:10;;;;;;;2.65;1.05;;;5.40;99.90;;;;;;5036685;28;20048;-60
2024/01/05 01:58:37;;;;;;;2.40;0.70;;;5.40;99.90;;;;;;5036372;28;20111;-61
2024/01/05 02:01:05;;;;;;;3.15;0.80;;;5.30;99.90;;;;;;5036164;28;20540;-61
2024/01/05 02:03:32;;;;;;;3.05;0.80;;;5.30;99.90;;;;;;5035961;28;20495;-60
2024/01/05 02:05:59;;;;;;;2.72;0.60;;;5.30;99.90;;;;;;5036078;28;20041;-60
2024/01/05 02:08:26;;;;;;;2.03;0.70;;;5.30;99.90;;;;;;5035702;28;20036;-61
2024/01/05 02:10:52;;;;;;;1.67;0.75;;;5.30;99.90;;;;;;5036179;28;20048;-61
2024/01/05 02:13:20;;;;;;;2.38;0.68;;;5.30;99.90;;;;;;5034343;28;20482;-61
2024/01/05 02:15:46;;;;;;;1.90;0.80;;;5.30;99.90;;;;;;5035661;28;20481;-60
2024/01/05 02:18:13;;;;;;;3.55;1.05;;;5.30;99.90;;;;;;5035531;28;20482;-60
2024/01/05 02:20:44;;;;;;;2.15;0.60;;;5.30;99.90;;;;;;5035544;28;20047;-60
2024/01/05 02:23:11;;;;;;;3.10;0.68;;;5.30;99.90;;;;;;5035217;28;20491;-59
2024/01/05 02:25:37;;;;;;;2.58;0.50;;;5.30;99.90;;;;;;5035324;28;20046;-69
2024/01/05 02:28:04;;;;;;;1.85;0.60;;;5.30;99.90;;;;;;5035486;28;20041;-71
2024/01/05 02:30:31;;;;;;;3.10;0.75;;;5.20;99.90;;;;;;5034765;28;20041;-69
2024/01/05 02:32:58;;;;;;;2.72;0.60;;;5.30;99.90;;;;;;5034190;28;20135;-70
2024/01/05 02:35:25;;;;;;;2.53;0.55;;;5.30;99.90;;;;;;5035194;28;20050;-70
2024/01/05 02:37:53;;;;;;;1.75;0.70;;;5.20;99.90;;;;;;5035619;28;20083;-70
2024/01/05 02:40:20;;;;;;;2.42;0.70;;;5.30;99.90;;;;;;5034910;28;20048;-69
2024/01/05 02:42:47;;;;;;;1.77;0.60;;;5.20;99.90;;;;;;5033721;28;20068;-70
2024/01/05 02:45:13;;;;;;;3.33;0.75;;;5.30;99.90;;;;;;5035212;28;20403;-70
2024/01/05 02:47:40;;;;;;;1.83;0.70;;;5.30;99.90;;;;;;5034844;28;20116;-68
2024/01/05 02:50:07;;;;;;;1.63;0.60;;;5.20;99.90;;;;;;5033713;28;20092;-70
2024/01/05 02:52:34;;;;;;;2.33;0.68;;;5.20;99.90;;;;;;5034853;28;20095;-68
2024/01/05 02:55:01;;;;;;;2.85;0.65;;;5.20;99.90;;;;;;5033391;28;20049;-67
2024/01/05 02:57:27;;;;;;;2.22;0.55;;;5.20;99.90;;;;;;5033457;28;20523;-68
2024/01/05 02:59:55;;;;;;;5.07;1.23;;;5.20;99.90;;;;;;5034603;28;20053;-68
2024/01/05 03:02:22;;;;;;;1.80;0.63;;;5.20;99.90;;;;;;5034813;28;20042;-68
2024/01/05 03:04:50;;;;;;;2.17;0.80;;;5.20;99.90;;;;;;5035880;28;20048;-67
2024/01/05 03:07:17;;;;;;;3.70;0.68;;;5.20;99.90;;;;;;5035083;28;20104;-68
2024/01/05 03:09:44;;;;;;;4.68;1.08;;;5.20;99.90;;;;;;5034858;28;20424;-69
2024/01/05 03:12:11;;;;;;;3.50;1.00;;;5.20;99.90;;;;;;5034837;28;20463;-69
2024/01/05 03:14:38;;;;;;;3.75;1.05;;;5.10;99.90;;;;;;5034999;28;20113;-69
2024/01/05 03:17:04;;;;;;;4.55;0.85;;;5.10;99.90;;;;;;5034580;28;20050;-69
2024/01/05 03:19:31;;;;;;;4.28;1.05;;;5.10;99.90;;;;;;5033308;28;20076;-69
2024/01/05 03:21:58;;;;;;;2.60;0.75;;;5.10;99.90;;;;;;5034919;28;20096;-69
2024/01/05 03:24:25;;;;;;;3.20;0.90;;;5.10;99.90;;;;;;5033210;28;20379;-69
2024/01/05 03:26:52;;;;;;;3.40;1.13;;;5.00;99.90;;;;;;5034424;28;20489;-69
2024/01/05 03:29:19;;;;;;;4.90;0.70;;;5.00;99.90;;;;;;5034170;28;20124;-69
2024/01/05 03:31:45;;;;;;;2.63;0.70;;;5.00;99.90;;;;;;5034143;28;20064;-69
2024/01/05 03:34:12;;;;;;;2.90;0.75;;;5.00;99.90;;;;;;5034195;28;20437;-69
2024/01/05 03:36:39;;;;;;;3.15;0.80;;;5.00;99.90;;;;;;5032723;28;20052;-69
2024/01/05 03:39:06;;;;;;;2.13;0.60;;;4.90;99.90;;;;;;5034372;28;20121;-68
2024/01/05 03:41:33;;;;;;;3.13;0.80;;;4.90;99.90;;;;;;5034204;28;20048;-69
2024/01/05 03:44:00;;;;;;;2.42;0.82;;;4.90;99.90;;;;;;5034001;28;20037;-68
2024/01/05 03:46:27;;;;;;;3.03;1.00;;;4.90;99.90;;;;;;5033847;28;20050;-68
2024/01/05 03:48:53;;;;;;;2.38;1.05;;;4.90;99.90;;;;;;5034515;28;20046;-68
2024/01/05 03:51:20;;;;;;;2.33;1.10;;;4.90;99.90;;;;;;5033970;28;20120;-68
2024/01/05 03:53:47;;;;;;;2.40;1.00;;;4.90;99.90;;;;;;5034291;28;20107;-68
2024/01/05 03:56:14;;;;;;;2.42;1.05;;;4.90;99.90;;;;;;5034374;28;20107;-69
2024/01/05 03:58:41;;;;;;;4.85;1.27;;;4.90;99.90;;;;;;5034294;28;20383;-68
2024/01/05 04:01:08;;;;;;;2.72;1.20;;;4.90;99.90;;;;;;5034303;28;20041;-60
2024/01/05 04:03:34;;;;;;;4.68;1.40;;;4.90;99.90;;;;;;5032432;28;20501;-60
2024/01/05 04:06:03;;;;;;;3.47;1.63;;;4.90;99.90;;;;;;5033630;28;20483;-59
2024/01/05 04:08:30;;;;;;;3.67;1.70;;;4.90;99.90;;;;;;5033771;28;20441;-60
2024/01/05 04:10:57;;;;;;;4.13;1.73;;;5.00;99.90;;;;;;5033659;28;20033;-59
2024/01/05 04:13:24;;;;;;;4.22;1.55;;;5.00;99.90;;;;;;5033294;28;20418;-60
2024/01/05 04:15:50;;;;;;;4.57;1.80;;;5.00;99.90;;;;;;5032195;28;20071;-60
2024/01/05 04:18:17;;;;;;;2.42;1.65;;;5.00;99.90;;;;;;5033270;28;20392;-59
2024/01/05 04:20:44;;;;;;;3.78;1.95;;;5.00;99.90;;;;;;5033642;28;20135;-60
2024/01/05 04:23:11;;;;;;;5.57;2.10;;;5.00;99.90;;;;;;5031770;28;20033;-59
2024/01/05 04:25:38;;;;;;;6.20;1.83;;;5.00;99.90;;;;;;5033527;28;20067;-60
2024/01/05 04:28:05;;;;;;;4.65;2.30;;;5.10;99.90;;;;;;5033604;28;20120;-59
2024/01/05 04:30:31;;;;;;;3.20;2.00;;;5.10;99.90;;;;;;5033176;28;20043;-59
2024/01/05 04:32:58;;;;;;;4.43;2.33;;;5.10;99.90;;;;;;5033198;28;20052;-60
2024/01/05 04:35:25;;;;;;;5.45;2.28;;;5.10;99.90;;;;;;5032599;28;20099;-60
2024/01/05 04:37:53;;;;;;;3.63;2.25;;;5.10;99.90;;;;;;5032968;28;20164;-60
2024/01/05 04:40:20;;;;;;;4.78;2.67;;;5.10;99.90;;;;;;5032856;28;20144;-59
2024/01/05 04:42:47;;;;;;;4.75;2.80;;;5.20;99.90;;;;;;5033276;28;20056;-59
2024/01/05 04:45:16;;;;;;;5.63;3.45;;;5.20;99.90;;;;;;5033380;28;20128;-60
2024/01/05 04:47:46;;;;;;;7.90;4.03;;;5.20;99.90;;;;;;5032866;28;20046;-59
2024/01/05 04:50:13;;;;;;;6.88;3.88;;;5.20;99.90;;;;;;5031672;28;20050;-60
2024/01/05 04:52:39;;;;;;;7.85;4.25;;;5.20;99.90;;;;;;5031834;28;20045;-60
2024/01/05 04:55:06;;;;;;;9.50;4.85;;;5.20;99.90;;;;;;5033220;28;20056;-59
2024/01/05 04:57:33;;;;;;;12.55;5.45;;;5.20;99.90;;;;;;5032073;28;20044;-59
2024/01/05 05:00:00;;;;;;;11.15;5.72;;;5.20;99.90;;;;;;5033151;28;20045;-59
2024/01/05 05:02:27;;;;;;;9.88;5.68;;;5.30;99.90;;;;;;5032847;28;20038;-60
2024/01/05 05:04:54;;;;;;;14.77;6.03;;;5.40;99.90;;;;;;5032780;28;20041;-61
2024/01/05 05:07:21;;;;;;;11.57;6.60;;;5.30;99.90;;;;;;5032673;28;20040;-60
2024/01/05 05:09:49;;;;;;;18.48;6.93;;;5.40;99.90;;;;;;5032826;28;20057;-59
2024/01/05 05:12:15;;;;;;;19.83;8.07;;;5.40;99.90;;;;;;5033254;28;20041;-60
2024/01/05 05:14:42;;;;;;;18.10;8.35;;;5.40;99.90;;;;;;5032563;28;20486;-60
2024/01/05 05:17:09;;;;;;;17.42;7.85;;;5.40;99.90;;;;;;5032447;28;20049;-60
2024/01/05 05:19:36;;;;;;;17.15;7.78;;;5.40;99.90;;;;;;5032973;28;20474;-60
2024/01/05 05:22:03;;;;;;;15.63;8.27;;;5.40;99.90;;;;;;5032768;28;20038;-60
2024/01/05 05:24:30;;;;;;;16.38;8.13;;;5.40;99.90;;;;;;5032340;28;20047;-60
2024/01/05 05:26:56;;;;;;;15.35;8.13;;;5.50;99.90;;;;;;5033316;28;20099;-59
2024/01/05 05:29:23;;;;;;;18.60;8.10;;;5.50;99.90;;;;;;5033183;28;20463;-59
2024/01/05 05:31:50;;;;;;;20.02;9.32;;;5.50;99.90;;;;;;5032501;28;20171;-60
2024/01/05 05:34:17;;;;;;;19.38;8.13;;;5.50;99.90;;;;;;5032994;28;20099;-59
2024/01/05 05:36:44;;;;;;;23.20;8.65;;;5.50;99.90;;;;;;5033336;28;20441;-60
2024/01/05 05:39:11;;;;;;;19.30;8.85;;;5.50;99.90;;;;;;5033161;28;20385;-59
2024/01/05 05:41:38;;;;;;;20.10;10.15;;;5.50;99.90;;;;;;5033039;28;20041;-60
2024/01/05 05:44:05;;;;;;;19.75;8.20;;;5.50;99.90;;;;;;5032298;28;20048;-60
2024/01/05 05:46:32;;;;;;;21.48;9.15;;;5.50;99.90;;;;;;5032745;28;20076;-60
2024/01/05 05:48:58;;;;;;;19.10;9.65;;;5.50;99.90;;;;;;5036186;28;20494;-60
2024/01/05 05:51:25;;;;;;;24.15;10.13;;;5.50;99.90;;;;;;5035940;28;20491;-60
2024/01/05 05:53:53;;;;;;;23.23;9.60;;;5.50;99.90;;;;;;5036289;28;20503;-60
2024/01/05 05:56:19;;;;;;;21.65;9.35;;;5.50;99.90;;;;;;5036332;28;20037;-60
2024/01/05 05:58:46;;;;;;;19.83;9.55;;;5.50;99.90;;;;;;5034648;28;20042;-60
2024/01/05 06:01:13;;;;;;;20.10;10.00;;;5.60;99.90;;;;;;5034634;28;20100;-60
2024/01/05 06:03:40;;;;;;;19.42;9.23;;;5.50;99.90;;;;;;5035610;28;20140;-60
2024/01/05 06:06:07;;;;;;;16.55;9.60;;;5.60;99.90;;;;;;5035891;28;20447;-60
2024/01/05 06:08:34;;;;;;;19.85;9.90;;;5.50;99.90;;;;;;5035678;28;20367;-60
2024/01/05 06:11:01;;;;;;;21.25;10.30;;;5.50;99.90;;;;;;5035549;28;20505;-60
2024/01/05 06:13:27;;;;;;;22.92;10.05;;;5.50;99.90;;;;;;5034555;28;20050;-59
2024/01/05 06:15:54;;;;;;;22.27;9.50;;;5.50;99.90;;;;;;5035622;28;20049;-60
2024/01/05 06:18:21;;;;;;;22.48;10.90;;;5.50;99.90;;;;;;5035691;28;20107;-60
2024/01/05 06:20:48;;;;;;;22.17;9.77;;;5.50;99.90;;;;;;5034028;28;20056;-60
2024/01/05 06:23:15;;;;;;;23.98;9.98;;;5.50;99.90;;;;;;5035449;28;20042;-60
2024/01/05 06:25:42;;;;;;;19.77;8.88;;;5.50;99.90;;;;;;5035622;28;20045;-60
2024/01/05 06:28:10;;;;;;;19.15;10.38;;;5.50;99.90;;;;;;5035415;28;20037;-59
2024/01/05 06:30:36;;;;;;;25.45;9.32;;;5.50;99.90;;;;;;5034279;28;20057;-60
2024/01/05 06:33:03;;;;;;;26.17;9.10;;;5.50;99.90;;;;;;5035597;28;20045;-60
2024/01/05 06:35:30;;;;;;;28.95;10.25;;;5.60;99.90;;;;;;5034378;28;20129;-60
2024/01/05 06:37:57;;;;;;;17.23;8.95;;;5.60;99.90;;;;;;5035455;28;20045;-60
2024/01/05 06:40:24;;;;;;;19.35;9.00;;;5.50;99.90;;;;;;5035191;28;20045;-59
2024/01/05 06:42:51;;;;;;;20.85;8.50;;;5.60;99.90;;;;;;5035237;28;20120;-60
2024/01/05 06:45:17;;;;;;;22.65;9.02;;;5.50;99.90;;;;;;5034771;28;20044;-60
2024/01/05 06:47:44;;;;;;;18.00;8.70;;;5.60;99.90;;;;;;5035277;28;20048;-60
2024/01/05 06:50:11;;;;;;;17.33;8.65;;;5.60;99.90;;;;;;5034802;28;20043;-69
2024/01/05 06:52:38;;;;;;;21.05;8.60;;;5.60;99.90;;;;;;5034300;28;20046;-68
2024/01/05 06:55:05;;;;;;;18.60;8.40;;;5.60;99.90;;;;;;5035114;28;20494;-68
2024/01/05 06:57:35;;;;;;;18.75;8.68;;;5.60;99.90;;;;;;5035561;28;20068;-69
2024/01/05 07:00:02;;;;;;;17.65;7.93;;;5.50;99.90;;;;;;5033766;28;20042;-68
2024/01/05 07:02:29;;;;;;;18.35;8.23;;;5.60;99.90;;;;;;5033983;28;20108;-68
2024/01/05 07:04:56;;;;;;;21.55;8.27;;;5.60;99.90;;;;;;5034440;28;20041;-68
2024/01/05 07:07:23;;;;;;;16.42;8.02;;;5.60;99.90;;;;;;5034549;28;20065;-68
2024/01/05 07:09:49;;;;;;;21.85;8.63;;;5.60;99.90;;;;;;5035066;28;20048;-69
2024/01/05 07:12:16;;;;;;;21.08;8.45;;;5.60;99.90;;;;;;5034845;28;20456;-68
2024/01/05 07:14:43;;;;;;;16.90;8.73;;;5.60;99.90;;;;;;5034982;28;20451;-68
2024/01/05 07:17:10;;;;;;;19.08;8.30;;;5.60;99.90;;;;;;5034175;28;20406;-68
2024/01/05 07:19:37;;;;;;;15.00;8.00;;;5.60;99.90;;;;;;5035068;28;20398;-68
2024/01/05 07:22:03;;;;;;;19.48;8.07;;;5.60;99.90;;;;;;5034616;28;20037;-68
2024/01/05 07:24:31;;;;;;;18.15;8.32;;;5.60;99.90;;;;;;5033387;28;20064;-68
2024/01/05 07:26:57;;;;;;;20.25;8.98;;;5.60;99.90;;;;;;5034196;28;20037;-68
2024/01/05 07:29:24;;;;;;;17.58;9.15;;;5.60;99.90;;;;;;5034256;28;20042;-68
2024/01/05 07:31:51;;;;;;;21.65;9.02;;;5.60;99.90;;;;;;5034814;28;20128;-68
2024/01/05 07:34:18;;;;;;;22.00;9.85;;;5.60;99.90;;;;;;5034228;28;20095;-60
2024/01/05 07:36:45;;;;;;;21.55;8.80;;;5.60;99.90;;;;;;5034143;28;20056;-60
2024/01/05 07:39:12;;;;;;;19.85;8.85;;;5.60;99.90;;;;;;5034508;28;20133;-60
2024/01/05 07:41:39;;;;;;;18.25;8.45;;;5.60;99.90;;;;;;5034489;28;20051;-60
2024/01/05 07:44:06;;;;;;;20.05;9.55;;;5.60;99.90;;;;;;5034519;28;20540;-59
2024/01/05 07:46:33;;;;;;;17.35;9.07;;;5.60;99.90;;;;;;5033401;28;20128;-60
2024/01/05 07:48:59;;;;;;;15.85;9.27;;;5.60;99.90;;;;;;5034147;28;20029;-60
2024/01/05 07:51:26;;;;;;;21.60;9.35;;;5.60;99.90;;;;;;5034413;28;20049;-60
2024/01/05 07:53:53;;;;;;;18.42;9.10;;;5.60;99.90;;;;;;5033829;28;20073;-60
2024/01/05 07:56:20;;;;;;;16.42;8.45;;;5.60;99.90;;;;;;5033110;28;20038;-59
2024/01/05 07:58:47;;;;;;;21.65;9.32;;;5.70;99.90;;;;;;5032169;28;20080;-59
2024/01/05 08:01:14;;;;;;;20.17;8.68;;;5.70;99.90;;;;;;5032627;28;20077;-67
2024/01/05 08:03:41;;;;;;;16.25;8.30;;;5.70;99.90;;;;;;5033208;28;20057;-67
2024/01/05 08:06:07;;;;;;;21.70;8.63;;;5.70;99.90;;;;;;5033427;28;20038;-67
2024/01/05 08:08:34;;;;;;;17.60;7.47;;;5.70;99.90;;;;;;5033475;28;20037;-67
2024/01/05 08:11:01;;;;;;;18.40;7.97;;;5.70;99.90;;;;;;5031613;28;20049;-67
2024/01/05 08:13:28;;;;;;;16.75;7.30;;;5.70;99.90;;;;;;5033642;28;20045;-67
2024/01/05 08:15:55;;;;;;;17.30;7.70;;;5.70;99.90;;;;;;5033775;28;20111;-67
2024/01/05 08:18:22;;;;;;;15.95;8.35;;;5.70;99.90;;;;;;5033277;28;20059;-67
2024/01/05 08:20:49;;;;;;;16.30;7.90;;;5.70;99.90;;;;;;5033511;28;20052;-67
2024/01/05 08:23:16;;;;;;;12.27;6.90;;;5.70;99.90;;;;;;5033006;28;20049;-67
2024/01/05 08:25:43;;;;;;;15.35;6.90;;;5.70;99.90;;;;;;5033707;28;20042;-67
2024/01/05 08:28:09;;;;;;;13.30;7.40;;;5.70;99.90;;;;;;5033442;28;20039;-59
2024/01/05 08:30:36;;;;;;;22.17;8.50;;;5.70;99.90;;;;;;5031783;28;20061;-60
2024/01/05 08:33:03;;;;;;;16.02;7.10;;;5.70;99.90;;;;;;5033160;28;20038;-59
2024/01/05 08:35:30;;;;;;;14.90;6.85;;;5.70;99.90;;;;;;5033501;28;20034;-60
2024/01/05 08:37:57;;;;;;;15.70;6.78;;;5.70;99.90;;;;;;5032099;28;20056;-60
2024/01/05 08:40:26;;;;;;;14.23;6.60;;;5.70;99.90;;;;;;5033283;28;20037;-60
2024/01/05 08:42:53;;;;;;;13.95;5.97;;;5.70;99.90;;;;;;5033373;28;20046;-60
2024/01/05 08:45:20;;;;;;;14.85;6.13;;;5.80;99.90;;;;;;5031844;28;20124;-60
2024/01/05 08:47:47;;;;;;;20.17;7.50;;;5.80;99.90;;;;;;5033383;28;20041;-60
2024/01/05 08:50:16;;;;;;;19.98;6.82;;;5.80;99.90;;;;;;5033286;28;20108;-60
2024/01/05 08:52:43;;;;;;;13.07;6.15;;;5.80;99.90;;;;;;5033156;28;20387;-59
2024/01/05 08:55:11;;;;;;;13.88;6.30;;;5.80;99.90;;;;;;5031470;28;20136;-60
2024/01/05 08:57:38;;;;;;;15.75;6.55;;;5.80;99.90;;;;;;5032976;28;20059;-59
2024/01/05 09:00:05;;;;;;;16.10;5.78;;;5.80;99.90;;;;;;5033215;28;20552;-60
2024/01/05 09:02:31;;;;;;;14.45;5.97;;;5.80;99.90;;;;;;5032913;28;20034;-60
2024/01/05 09:04:58;;;;;;;13.50;6.65;;;5.80;99.90;;;;;;5032895;28;20077;-59
2024/01/05 09:07:25;;;;;;;11.57;6.03;;;5.80;99.90;;;;;;5032845;28;20481;-60
2024/01/05 09:09:52;;;;;;;14.38;6.00;;;5.80;99.90;;;;;;5033264;28;20077;-59
2024/01/05 09:12:19;;;;;;;15.77;5.90;;;5.80;99.90;;;;;;5032643;28;20050;-60
2024/01/05 09:14:46;;;;;;;15.00;6.30;;;5.80;99.90;;;;;;5031347;28;20051;-67
2024/01/05 09:17:13;;;;;;;13.57;5.22;;;5.90;99.90;;;;;;5033126;28;20053;-67
2024/01/05 09:19:39;;;;;;;18.27;5.72;;;5.90;99.90;;;;;;5032677;28;20135;-67
2024/01/05 09:22:07;;;;;;;13.98;5.28;;;5.90;99.90;;;;;;5033432;28;20570;-67
2024/01/05 09:24:34;;;;;;;17.27;5.85;;;5.90;99.90;;;;;;5036608;28;20051;-68
2024/01/05 09:27:04;;;;;;;13.63;5.40;;;5.90;99.90;;;;;;5036451;28;20033;-58
2024/01/05 09:29:31;;;;;;;13.10;5.60;;;5.90;99.90;;;;;;5036680;28;20475;-59
2024/01/05 09:31:57;;;;;;;14.02;5.03;;;5.90;99.90;;;;;;5035501;28;20040;-59
2024/01/05 09:34:24;;;;;;;13.65;5.07;;;5.90;99.90;;;;;;5036495;28;20103;-58
2024/01/05 09:36:51;;;;;;;13.82;5.13;;;5.90;99.90;;;;;;5036846;28;20061;-59
2024/01/05 09:39:18;;;;;;;13.85;4.97;;;5.90;99.90;;;;;;5036472;28;20124;-59
2024/01/05 09:41:45;;;;;;;11.80;4.50;;;6.00;99.90;;;;;;5036549;28;20049;-59
2024/01/05 09:44:12;;;;;;;12.15;5.28;;;6.00;99.90;;;;;;5034950;28;20037;-59
2024/01/05 09:46:39;;;;;;;10.23;4.57;;;6.00;99.90;;;;;;5036481;28;20042;-60
2024/01/05 09:49:06;;;;;;;15.52;4.55;;;6.00;99.90;;;;;;5036222;28;20121;-60
2024/01/05 09:51:33;;;;;;;10.52;4.15;;;6.00;99.90;;;;;;5036001;28;20045;-60
2024/01/05 09:54:00;;;;;;;14.02;4.07;;;6.10;99.90;;;;;;5036291;28;20423;-60
2024/01/05 09:56:29;;;;;;;13.15;4.05;;;6.10;99.90;;;;;;5036525;28;20467;-60
2024/01/05 09:58:57;;;;;;;11.23;4.68;;;6.10;99.90;;;;;;5034859;28;20050;-60
2024/01/05 10:01:24;;;;;;;13.65;4.22;;;6.10;99.90;;;;;;5035907;28;20099;-59
2024/01/05 10:03:54;;;;;;;12.13;3.90;;;6.10;99.90;;;;;;5035825;28;20048;-60
2024/01/05 10:06:21;;;;;;;11.45;4.25;;;6.10;99.90;;;;;;5035753;28;20048;-60
2024/01/05 10:08:48;;;;;;;12.32;4.07;;;6.10;99.90;;;;;;5036022;28;20069;-60
2024/01/05 10:11:15;;;;;;;9.20;4.05;;;6.10;99.90;;;;;;5035938;28;20558;-60
2024/01/05 10:13:42;;;;;;;10.00;3.83;;;6.10;99.90;;;;;;5034769;28;20038;-60
2024/01/05 10:16:09;;;;;;;12.70;4.47;;;6.20;99.90;;;;;;5034491;28;20495;-60
2024/01/05 10:18:35;;;;;;;11.10;4.18;;;6.20;99.90;;;;;;5036107;28;20041;-60
2024/01/05 10:21:02;;;;;;;10.77;4.20;;;6.20;99.90;;;;;;5035714;28;20107;-60
2024/01/05 10:23:30;;;;;;;12.23;4.47;;;6.20;99.90;;;;;;5035295;28;20041;-60
2024/01/05 10:25:57;;;;;;;10.40;3.80;;;6.20;99.90;;;;;;5035590;28;20045;-60
2024/01/05 10:28:24;;;;;;;12.70;4.65;;;6.20;99.90;;;;;;5035721;28;20052;-59
2024/01/05 10:30:52;;;;;;;11.95;4.18;;;6.20;99.90;;;;;;5035370;28;20120;-60
2024/01/05 10:33:19;;;;;;;13.07;4.65;;;6.20;99.90;;;;;;5034136;28;20053;-60
2024/01/05 10:35:46;;;;;;;12.90;4.50;;;6.20;99.90;;;;;;5034368;28;20107;-60
2024/01/05 10:38:13;;;;;;;12.00;4.60;;;6.20;99.90;;;;;;5035316;28;20189;-60
2024/01/05 10:40:40;;;;;;;14.20;4.88;;;6.30;99.90;;;;;;5035120;28;20042;-59
2024/01/05 10:43:07;;;;;;;8.93;4.00;;;6.30;99.90;;;;;;5035502;28;20045;-59
2024/01/05 10:45:34;;;;;;;10.45;4.72;;;6.30;99.90;;;;;;5033869;28;20108;-60
2024/01/05 10:48:01;;;;;;;11.73;4.50;;;6.30;99.90;;;;;;5035699;28;20131;-60
2024/01/05 10:50:28;;;;;;;10.38;4.93;;;6.30;99.90;;;;;;5034712;28;20038;-68
2024/01/05 10:52:55;;;;;;;11.18;5.10;;;6.40;99.90;;;;;;5034759;28;20112;-67
2024/01/05 10:55:21;;;;;;;10.77;4.78;;;6.40;99.90;;;;;;5034616;28;20140;-67
2024/01/05 10:57:48;;;;;;;11.35;4.85;;;6.40;99.90;;;;;;5034968;28;20049;-67
2024/01/05 11:00:15;;;;;;;11.32;5.03;;;6.40;99.90;;;;;;5034030;28;20144;-68
2024/01/05 11:02:42;;;;;;;11.25;4.80;;;6.40;99.90;;;;;;5035269;28;20049;-68
2024/01/05 11:05:09;;;;;;;10.52;4.30;;;6.40;99.90;;;;;;5033460;28;20165;-67
2024/01/05 11:07:36;;;;;;;13.05;4.75;;;6.50;99.90;;;;;;5035129;28;20041;-67
2024/01/05 11:10:03;;;;;;;11.88;5.05;;;6.50;99.90;;;;;;5035107;28;20097;-67
2024/01/05 11:12:30;;;;;;;11.70;5.35;;;6.50;99.90;;;;;;5033437;28;20045;-67
2024/01/05 11:14:57;;;;;;;8.05;4.40;;;6.50;99.90;;;;;;5034420;28;20042;-67
2024/01/05 11:17:23;;;;;;;11.55;5.13;;;6.60;99.90;;;;;;5034472;28;20429;-67
2024/01/05 11:19:50;;;;;;;9.98;4.93;;;6.70;99.90;;;;;;5034333;28;20063;-67
2024/01/05 11:22:17;;;;;;;10.88;5.65;;;6.70;99.90;;;;;;5034486;28;20034;-60
2024/01/05 11:24:44;;;;;;;13.30;5.05;;;6.70;99.90;;;;;;5034398;28;20061;-62
2024/01/05 11:27:11;;;;;;;7.72;4.72;;;6.80;99.90;;;;;;5034706;28;20037;-59
2024/01/05 11:29:38;;;;;;;10.07;5.20;;;6.90;99.90;;;;;;5034464;28;20038;-67
2024/01/05 11:32:05;;;;;;;12.50;5.22;;;6.90;99.90;;;;;;5034531;28;20044;-59
2024/01/05 11:34:32;;;;;;;10.50;5.43;;;6.90;99.90;;;;;;5034038;28;20056;-59
2024/01/05 11:37:00;;;;;;;9.05;4.97;;;7.00;99.90;;;;;;5034285;28;20049;-67
2024/01/05 11:39:26;;;;;;;11.00;5.25;;;7.00;99.90;;;;;;5034292;28;20075;-67
2024/01/05 11:41:53;;;;;;;12.18;5.45;;;7.00;99.90;;;;;;5034437;28;20033;-59
2024/01/05 11:44:20;;;;;;;8.98;5.32;;;7.00;99.90;;;;;;5032443;28;20041;-60
2024/01/05 11:46:47;;;;;;;10.77;4.85;;;7.00;99.90;;;;;;5033854;28;20068;-59
2024/01/05 11:49:14;;;;;;;11.95;4.65;;;7.00;99.90;;;;;;5033836;28;20041;-60
2024/01/05 11:51:41;;;;;;;11.23;5.30;;;7.00;99.90;;;;;;5032605;28;20470;-59
2024/01/05 11:54:09;;;;;;;11.20;6.65;;;7.00;99.90;;;;;;5033726;28;20041;-59
2024/01/05 11:56:35;;;;;;;8.32;4.75;;;7.00;99.90;;;;;;5033850;28;20087;-60
2024/01/05 11:59:02;;;;;;;10.00;5.10;;;7.00;99.90;;;;;;5032854;28;20483;-59
2024/01/05 12:01:29;;;;;;;12.02;4.50;;;7.10;99.90;;;;;;5033025;28;20422;-59
2024/01/05 12:03:56;;;;;;;11.55;4.65;;;7.10;99.90;;;;;;5011109;28;20042;-59
2024/01/05 12:06:23;;;;;;;9.60;4.68;;;7.10;99.90;;;;;;5012861;28;20104;-59
2024/01/05 12:08:51;;;;;;;12.77;4.75;;;7.10;99.90;;;;;;5013183;28;20423;-65
2024/01/05 12:11:17;;;;;;;10.48;4.80;;;7.10;99.90;;;;;;5013542;28;20042;-59
2024/01/05 12:13:44;;;;;;;8.75;4.38;;;7.20;99.90;;;;;;5029965;28;20073;-59
2024/01/05 12:16:11;;;;;;;10.60;4.65;;;7.20;99.90;;;;;;5032790;28;20048;-61
2024/01/05 12:18:38;;;;;;;9.35;4.38;;;7.20;99.90;;;;;;5031310;28;20065;-66
2024/01/05 12:21:05;;;;;;;9.27;4.18;;;7.20;99.90;;;;;;5033133;28;20045;-66
2024/01/05 12:23:34;;;;;;;9.02;4.40;;;7.20;99.90;;;;;;5016200;28;20049;-66
2024/01/05 12:26:02;;;;;;;9.55;4.20;;;7.20;99.90;;;;;;5011646;28;20066;-66
2024/01/05 12:28:29;;;;;;;9.88;4.40;;;7.30;99.90;;;;;;5013217;28;20507;-67
2024/01/05 12:30:56;;;;;;;11.20;5.00;;;7.40;99.90;;;;;;5012996;28;20479;-66
2024/01/05 12:33:23;;;;;;;12.38;5.22;;;7.40;99.90;;;;;;5012916;28;20049;-65
2024/01/05 12:35:52;;;;;;;13.38;5.68;;;7.30;99.90;;;;;;5013091;28;20050;-60
2024/01/05 12:38:18;;;;;;;11.73;5.95;;;7.30;99.90;;;;;;5013014;28;20046;-59
2024/01/05 12:40:46;;;;;;;12.88;6.47;;;7.30;99.90;;;;;;5012883;28;20512;-59
2024/01/05 12:43:12;;;;;;;11.48;6.75;;;7.30;99.90;;;;;;5011837;28;20483;-61
2024/01/05 12:45:39;;;;;;;16.42;6.90;;;7.30;99.90;;;;;;5012865;28;20479;-60
2024/01/05 12:48:06;;;;;;;12.60;7.30;;;7.30;99.90;;;;;;5013271;28;20033;-59